sensor_id;sensor_type;location;lat;lon;timestamp;pressure;altitude;pressure_sealevel;temperature;humidity
45323;BME280;31382;50.200;8.674;2023-03-22T00:04:14;100089.25;;;9.02;75.61
45323;BME280;31382;50.200;8.674;2023-03-22T00:09:16;100083.91;;;9.02;75.49
45323;BME280;31382;50.200;8.674;2023-03-22T00:14:17;100078.38;;;9.04;75.69
45323;BME280;31382;50.200;8.674;2023-03-22T00:19:19;100083.72;;;9.04;75.72
45323;BME280;31382;50.200;8.674;2023-03-22T00:24:20;100070.19;;;8.97;75.85
45323;BME280;31382;50.200;8.674;2023-03-22T00:34:35;100063.66;;;8.91;75.67
45323;BME280;31382;50.200;8.674;2023-03-22T00:39:36;100058.47;;;8.90;76.15
45323;BME280;31382;50.200;8.674;2023-03-22T00:44:38;100047.59;;;8.91;75.95
45323;BME280;31382;50.200;8.674;2023-03-22T00:49:39;100046.06;;;8.97;76.09
45323;BME280;31382;50.200;8.674;2023-03-22T00:54:41;100044.22;;;8.98;76.39
45323;BME280;31382;50.200;8.674;2023-03-22T00:59:43;100046.19;;;9.04;76.14
45323;BME280;31382;50.200;8.674;2023-03-22T01:04:44;100034.88;;;9.25;76.89
45323;BME280;31382;50.200;8.674;2023-03-22T01:09:47;100026.69;;;9.49;77.20
45323;BME280;31382;50.200;8.674;2023-03-22T01:14:48;100027.06;;;9.69;77.55
45323;BME280;31382;50.200;8.674;2023-03-22T01:19:50;100025.28;;;9.85;77.65
45323;BME280;31382;50.200;8.674;2023-03-22T01:30:05;100017.69;;;10.11;78.00
45323;BME280;31382;50.200;8.674;2023-03-22T01:35:07;100008.34;;;10.22;77.83
45323;BME280;31382;50.200;8.674;2023-03-22T01:40:11;100013.69;;;10.30;77.59
45323;BME280;31382;50.200;8.674;2023-03-22T01:50:15;100006.66;;;10.44;78.01
45323;BME280;31382;50.200;8.674;2023-03-22T01:55:18;99998.53;;;10.52;77.60
45323;BME280;31382;50.200;8.674;2023-03-22T02:00:23;100002.31;;;10.58;77.79
45323;BME280;31382;50.200;8.674;2023-03-22T02:05:25;99991.03;;;10.63;77.50
45323;BME280;31382;50.200;8.674;2023-03-22T02:10:27;99984.25;;;10.67;77.39
45323;BME280;31382;50.200;8.674;2023-03-22T02:15:36;99975.38;;;10.66;77.01
45323;BME280;31382;50.200;8.674;2023-03-22T02:20:56;99974.72;;;10.64;76.96
45323;BME280;31382;50.200;8.674;2023-03-22T02:42:30;99966.34;;;10.44;77.26
45323;BME280;31382;50.200;8.674;2023-03-22T02:47:40;99959.31;;;10.43;77.46
45323;BME280;31382;50.200;8.674;2023-03-22T02:52:45;99965.69;;;10.42;77.07
45323;BME280;31382;50.200;8.674;2023-03-22T02:57:54;99965.34;;;10.45;77.00
45323;BME280;31382;50.200;8.674;2023-03-22T03:03:04;99969.78;;;10.38;77.19
45323;BME280;31382;50.200;8.674;2023-03-22T03:08:12;99969.97;;;10.37;77.43
45323;BME280;31382;50.200;8.674;2023-03-22T03:13:17;99979.06;;;10.36;76.95
45323;BME280;31382;50.200;8.674;2023-03-22T03:24:03;99975.59;;;10.27;77.12
45323;BME280;31382;50.200;8.674;2023-03-22T03:29:04;99963.50;;;10.31;77.00
45323;BME280;31382;50.200;8.674;2023-03-22T03:34:19;99959.66;;;10.25;77.00
45323;BME280;31382;50.200;8.674;2023-03-22T03:39:24;99955.47;;;10.23;77.07
45323;BME280;31382;50.200;8.674;2023-03-22T03:44:29;99953.25;;;10.11;77.12
45323;BME280;31382;50.200;8.674;2023-03-22T03:49:31;99951.69;;;10.17;76.93
45323;BME280;31382;50.200;8.674;2023-03-22T03:54:33;99941.75;;;10.18;76.49
45323;BME280;31382;50.200;8.674;2023-03-22T03:59:34;99933.41;;;10.12;76.36
45323;BME280;31382;50.200;8.674;2023-03-22T04:04:35;99945.53;;;9.93;76.53
45323;BME280;31382;50.200;8.674;2023-03-22T04:09:37;99944.47;;;9.80;77.19
45323;BME280;31382;50.200;8.674;2023-03-22T04:14:39;99942.13;;;9.77;76.99
45323;BME280;31382;50.200;8.674;2023-03-22T04:19:41;99949.53;;;9.75;76.84
45323;BME280;31382;50.200;8.674;2023-03-22T04:24:44;99932.91;;;9.56;77.21
45323;BME280;31382;50.200;8.674;2023-03-22T04:29:50;99928.06;;;9.51;77.09
45323;BME280;31382;50.200;8.674;2023-03-22T04:34:52;99918.38;;;9.50;76.80
45323;BME280;31382;50.200;8.674;2023-03-22T04:39:53;99923.31;;;9.39;76.95
45323;BME280;31382;50.200;8.674;2023-03-22T04:44:55;99917.00;;;9.31;77.14
45323;BME280;31382;50.200;8.674;2023-03-22T04:49:56;99910.91;;;9.38;76.98
45323;BME280;31382;50.200;8.674;2023-03-22T04:54:57;99906.41;;;9.38;76.26
45323;BME280;31382;50.200;8.674;2023-03-22T04:59:59;99904.88;;;9.36;76.37
45323;BME280;31382;50.200;8.674;2023-03-22T05:05:00;99898.75;;;9.27;76.14
45323;BME280;31382;50.200;8.674;2023-03-22T05:10:02;99899.47;;;9.21;75.94
45323;BME280;31382;50.200;8.674;2023-03-22T05:15:04;99909.06;;;9.15;75.88
45323;BME280;31382;50.200;8.674;2023-03-22T05:20:07;99915.97;;;9.09;75.58
45323;BME280;31382;50.200;8.674;2023-03-22T05:25:09;99915.19;;;9.01;75.88
45323;BME280;31382;50.200;8.674;2023-03-22T05:30:11;99918.22;;;8.98;75.40
45323;BME280;31382;50.200;8.674;2023-03-22T05:35:13;99927.47;;;8.95;75.61
45323;BME280;31382;50.200;8.674;2023-03-22T05:40:14;99924.28;;;8.91;75.86
45323;BME280;31382;50.200;8.674;2023-03-22T05:45:17;99927.66;;;8.85;75.90
45323;BME280;31382;50.200;8.674;2023-03-22T05:50:20;99929.78;;;8.67;76.40
45323;BME280;31382;50.200;8.674;2023-03-22T05:55:22;99940.16;;;8.62;77.02
45323;BME280;31382;50.200;8.674;2023-03-22T06:00:24;99939.13;;;8.71;76.70
45323;BME280;31382;50.200;8.674;2023-03-22T06:05:26;99928.22;;;8.81;76.29
45323;BME280;31382;50.200;8.674;2023-03-22T06:10:27;99920.94;;;8.89;76.17
45323;BME280;31382;50.200;8.674;2023-03-22T06:15:29;99917.56;;;8.96;76.40
45323;BME280;31382;50.200;8.674;2023-03-22T06:20:31;99917.03;;;9.00;76.43
45323;BME280;31382;50.200;8.674;2023-03-22T06:25:32;99924.50;;;9.13;76.79
45323;BME280;31382;50.200;8.674;2023-03-22T06:30:34;99938.16;;;9.26;76.58
45323;BME280;31382;50.200;8.674;2023-03-22T06:35:36;99934.53;;;9.42;76.98
45323;BME280;31382;50.200;8.674;2023-03-22T06:40:37;99931.63;;;9.52;76.98
45323;BME280;31382;50.200;8.674;2023-03-22T06:45:39;99938.16;;;9.72;76.79
45323;BME280;31382;50.200;8.674;2023-03-22T06:50:41;99935.97;;;9.91;76.89
45323;BME280;31382;50.200;8.674;2023-03-22T06:55:44;99943.88;;;10.07;77.42
45323;BME280;31382;50.200;8.674;2023-03-22T07:00:46;99941.84;;;10.24;77.60
45323;BME280;31382;50.200;8.674;2023-03-22T07:05:47;99942.81;;;10.46;78.09
45323;BME280;31382;50.200;8.674;2023-03-22T07:10:49;99945.06;;;10.73;78.32
45323;BME280;31382;50.200;8.674;2023-03-22T07:15:59;99940.28;;;10.89;78.07
45323;BME280;31382;50.200;8.674;2023-03-22T07:21:01;99943.78;;;11.05;78.49
45323;BME280;31382;50.200;8.674;2023-03-22T07:26:02;99934.47;;;11.22;77.77
45323;BME280;31382;50.200;8.674;2023-03-22T07:31:06;99934.34;;;11.30;77.77
45323;BME280;31382;50.200;8.674;2023-03-22T07:36:10;99926.78;;;11.41;77.21
45323;BME280;31382;50.200;8.674;2023-03-22T07:41:12;99924.66;;;11.58;76.91
45323;BME280;31382;50.200;8.674;2023-03-22T07:46:13;99932.50;;;11.81;76.82
45323;BME280;31382;50.200;8.674;2023-03-22T07:51:14;99921.25;;;11.92;76.54
45323;BME280;31382;50.200;8.674;2023-03-22T07:56:17;99919.63;;;11.98;76.77
45323;BME280;31382;50.200;8.674;2023-03-22T08:01:18;99909.78;;;12.12;75.98
45323;BME280;31382;50.200;8.674;2023-03-22T08:06:20;99916.03;;;12.47;75.85
45323;BME280;31382;50.200;8.674;2023-03-22T08:11:21;99917.53;;;12.56;75.63
45323;BME280;31382;50.200;8.674;2023-03-22T08:16:23;99912.59;;;12.66;74.82
45323;BME280;31382;50.200;8.674;2023-03-22T08:21:24;99912.06;;;12.91;75.11
45323;BME280;31382;50.200;8.674;2023-03-22T08:26:26;99918.75;;;13.08;74.46
45323;BME280;31382;50.200;8.674;2023-03-22T08:31:27;99919.19;;;13.12;74.46
45323;BME280;31382;50.200;8.674;2023-03-22T08:36:29;99914.03;;;13.17;74.18
45323;BME280;31382;50.200;8.674;2023-03-22T08:41:31;99913.88;;;13.39;73.59
45323;BME280;31382;50.200;8.674;2023-03-22T08:46:32;99915.56;;;13.53;73.06
45323;BME280;31382;50.200;8.674;2023-03-22T08:51:34;99911.63;;;13.89;72.64
45323;BME280;31382;50.200;8.674;2023-03-22T08:56:35;99895.41;;;14.09;71.98
45323;BME280;31382;50.200;8.674;2023-03-22T09:01:38;99899.97;;;14.22;71.51
45323;BME280;31382;50.200;8.674;2023-03-22T09:06:40;99892.03;;;14.34;71.14
45323;BME280;31382;50.200;8.674;2023-03-22T09:11:44;99898.19;;;14.61;70.33
45323;BME280;31382;50.200;8.674;2023-03-22T09:16:46;99875.22;;;14.83;69.35
45323;BME280;31382;50.200;8.674;2023-03-22T09:21:48;99878.69;;;14.97;68.61
45323;BME280;31382;50.200;8.674;2023-03-22T09:26:50;99866.56;;;15.06;68.12
45323;BME280;31382;50.200;8.674;2023-03-22T09:31:51;99865.78;;;15.31;67.42
45323;BME280;31382;50.200;8.674;2023-03-22T09:36:53;99853.50;;;15.54;66.81
45323;BME280;31382;50.200;8.674;2023-03-22T09:41:59;99840.38;;;15.82;65.81
45323;BME280;31382;50.200;8.674;2023-03-22T09:47:03;99831.53;;;16.12;65.11
45323;BME280;31382;50.200;8.674;2023-03-22T09:52:11;99828.44;;;16.27;64.42
45323;BME280;31382;50.200;8.674;2023-03-22T10:02:44;99825.66;;;16.34;62.95
45323;BME280;31382;50.200;8.674;2023-03-22T10:08:10;99810.50;;;16.44;62.07
45323;BME280;31382;50.200;8.674;2023-03-22T10:18:43;99808.25;;;16.41;61.33
45323;BME280;31382;50.200;8.674;2023-03-22T10:23:54;99813.13;;;16.33;60.81
45323;BME280;31382;50.200;8.674;2023-03-22T10:29:10;99810.53;;;16.26;59.84
45323;BME280;31382;50.200;8.674;2023-03-22T10:34:49;99814.53;;;16.23;58.90
45323;BME280;31382;50.200;8.674;2023-03-22T10:39:45;99814.44;;;16.30;58.32
45323;BME280;31382;50.200;8.674;2023-03-22T10:45:00;99814.34;;;16.55;57.73
45323;BME280;31382;50.200;8.674;2023-03-22T10:50:06;99807.94;;;16.50;56.47
45323;BME280;31382;50.200;8.674;2023-03-22T10:55:13;99821.88;;;16.35;55.04
45323;BME280;31382;50.200;8.674;2023-03-22T11:00:16;99819.53;;;16.38;55.20
45323;BME280;31382;50.200;8.674;2023-03-22T11:05:26;99807.94;;;16.50;54.75
45323;BME280;31382;50.200;8.674;2023-03-22T11:10:30;99810.84;;;16.66;54.67
45323;BME280;31382;50.200;8.674;2023-03-22T11:15:38;99806.81;;;16.88;54.90
45323;BME280;31382;50.200;8.674;2023-03-22T11:20:51;99792.72;;;17.09;53.62
45323;BME280;31382;50.200;8.674;2023-03-22T11:25:55;99783.09;;;17.60;52.43
45323;BME280;31382;50.200;8.674;2023-03-22T11:31:10;99772.34;;;18.01;51.53
45323;BME280;31382;50.200;8.674;2023-03-22T11:36:17;99788.38;;;18.14;50.38
45323;BME280;31382;50.200;8.674;2023-03-22T11:41:21;99772.81;;;18.10;50.82
45323;BME280;31382;50.200;8.674;2023-03-22T11:46:24;99746.00;;;18.30;50.11
45323;BME280;31382;50.200;8.674;2023-03-22T11:51:28;99748.69;;;18.71;49.45
45323;BME280;31382;50.200;8.674;2023-03-22T11:56:32;99753.78;;;18.67;48.19
45323;BME280;31382;50.200;8.674;2023-03-22T12:01:39;99753.97;;;18.77;47.45
45323;BME280;31382;50.200;8.674;2023-03-22T12:06:42;99734.72;;;19.13;46.65
45323;BME280;31382;50.200;8.674;2023-03-22T12:11:46;99732.72;;;19.25;45.37
45323;BME280;31382;50.200;8.674;2023-03-22T12:16:51;99738.13;;;19.20;44.41
45323;BME280;31382;50.200;8.674;2023-03-22T12:21:55;99748.75;;;19.38;43.28
45323;BME280;31382;50.200;8.674;2023-03-22T12:27:08;99765.25;;;19.49;42.43
45323;BME280;31382;50.200;8.674;2023-03-22T12:32:18;99758.00;;;19.54;42.18
45323;BME280;31382;50.200;8.674;2023-03-22T12:37:27;99740.72;;;19.66;41.70
45323;BME280;31382;50.200;8.674;2023-03-22T12:48:37;99735.00;;;19.67;41.29
45323;BME280;31382;50.200;8.674;2023-03-22T12:53:50;99719.59;;;19.73;41.07
45323;BME280;31382;50.200;8.674;2023-03-22T12:58:58;99719.13;;;19.81;41.11
45323;BME280;31382;50.200;8.674;2023-03-22T13:09:52;99700.53;;;20.00;41.62
45323;BME280;31382;50.200;8.674;2023-03-22T13:15:30;99695.06;;;20.22;41.00
45323;BME280;31382;50.200;8.674;2023-03-22T13:20:42;99701.19;;;20.07;41.27
45323;BME280;31382;50.200;8.674;2023-03-22T13:26:01;99673.97;;;20.12;40.48
45323;BME280;31382;50.200;8.674;2023-03-22T13:31:05;99692.34;;;20.22;40.38
45323;BME280;31382;50.200;8.674;2023-03-22T13:41:27;99662.78;;;20.41;39.15
45323;BME280;31382;50.200;8.674;2023-03-22T13:51:36;99666.81;;;20.93;38.83
45323;BME280;31382;50.200;8.674;2023-03-22T14:01:45;99655.13;;;20.65;38.42
45323;BME280;31382;50.200;8.674;2023-03-22T14:07:04;99672.28;;;20.60;38.10
45323;BME280;31382;50.200;8.674;2023-03-22T14:12:18;99655.97;;;20.44;38.36
45323;BME280;31382;50.200;8.674;2023-03-22T14:17:51;99661.66;;;20.37;38.43
45323;BME280;31382;50.200;8.674;2023-03-22T14:22:59;99655.16;;;20.16;38.65
45323;BME280;31382;50.200;8.674;2023-03-22T14:28:01;99657.09;;;19.93;38.98
45323;BME280;31382;50.200;8.674;2023-03-22T14:33:12;99650.06;;;19.75;39.69
45323;BME280;31382;50.200;8.674;2023-03-22T14:38:18;99649.75;;;19.55;40.60
45323;BME280;31382;50.200;8.674;2023-03-22T14:48:23;99645.72;;;19.18;40.27
45323;BME280;31382;50.200;8.674;2023-03-22T14:53:31;99658.84;;;19.05;40.33
45323;BME280;31382;50.200;8.674;2023-03-22T14:58:34;99648.38;;;18.96;40.57
45323;BME280;31382;50.200;8.674;2023-03-22T15:03:36;99651.34;;;18.95;40.88
45323;BME280;31382;50.200;8.674;2023-03-22T15:08:36;99640.78;;;18.98;41.40
45323;BME280;31382;50.200;8.674;2023-03-22T15:13:38;99631.88;;;19.03;41.23
45323;BME280;31382;50.200;8.674;2023-03-22T15:18:39;99635.34;;;18.81;41.51
45323;BME280;31382;50.200;8.674;2023-03-22T15:23:54;99630.81;;;18.87;41.80
45323;BME280;31382;50.200;8.674;2023-03-22T15:28:59;99636.00;;;18.89;42.06
45323;BME280;31382;50.200;8.674;2023-03-22T15:34:05;99633.34;;;18.77;42.17
45323;BME280;31382;50.200;8.674;2023-03-22T15:39:32;99630.06;;;18.92;42.40
45323;BME280;31382;50.200;8.674;2023-03-22T15:44:33;99634.09;;;18.89;41.99
45323;BME280;31382;50.200;8.674;2023-03-22T15:49:37;99633.47;;;18.82;42.10
45323;BME280;31382;50.200;8.674;2023-03-22T15:54:48;99625.53;;;18.80;42.05
45323;BME280;31382;50.200;8.674;2023-03-22T16:00:03;99625.34;;;18.70;42.15
45323;BME280;31382;50.200;8.674;2023-03-22T16:05:10;99624.13;;;18.78;41.98
45323;BME280;31382;50.200;8.674;2023-03-22T16:10:16;99632.53;;;18.76;42.05
45323;BME280;31382;50.200;8.674;2023-03-22T16:15:20;99630.84;;;18.75;42.31
45323;BME280;31382;50.200;8.674;2023-03-22T16:20:20;99640.31;;;18.85;42.30
45323;BME280;31382;50.200;8.674;2023-03-22T16:25:22;99630.78;;;18.70;42.46
45323;BME280;31382;50.200;8.674;2023-03-22T16:30:25;99634.34;;;18.71;42.54
45323;BME280;31382;50.200;8.674;2023-03-22T16:35:26;99633.91;;;18.62;42.65
45323;BME280;31382;50.200;8.674;2023-03-22T16:40:28;99640.09;;;18.57;42.51
45323;BME280;31382;50.200;8.674;2023-03-22T16:45:33;99635.47;;;18.58;42.50
45323;BME280;31382;50.200;8.674;2023-03-22T16:50:35;99630.53;;;18.55;42.61
45323;BME280;31382;50.200;8.674;2023-03-22T16:55:37;99636.22;;;18.53;42.75
45323;BME280;31382;50.200;8.674;2023-03-22T17:00:38;99637.19;;;18.47;42.67
45323;BME280;31382;50.200;8.674;2023-03-22T17:05:38;99640.91;;;18.41;42.77
45323;BME280;31382;50.200;8.674;2023-03-22T17:10:39;99638.44;;;18.39;42.86
45323;BME280;31382;50.200;8.674;2023-03-22T17:15:43;99637.91;;;18.26;42.58
45323;BME280;31382;50.200;8.674;2023-03-22T17:20:45;99653.75;;;18.29;42.66
45323;BME280;31382;50.200;8.674;2023-03-22T17:25:45;99656.84;;;18.20;42.84
45323;BME280;31382;50.200;8.674;2023-03-22T17:30:50;99650.25;;;18.16;43.07
45323;BME280;31382;50.200;8.674;2023-03-22T17:35:51;99658.66;;;18.15;43.01
45323;BME280;31382;50.200;8.674;2023-03-22T17:40:51;99672.84;;;18.17;43.14
45323;BME280;31382;50.200;8.674;2023-03-22T17:45:52;99668.63;;;18.09;43.16
45323;BME280;31382;50.200;8.674;2023-03-22T17:50:52;99663.06;;;18.04;43.34
45323;BME280;31382;50.200;8.674;2023-03-22T17:55:54;99653.84;;;18.05;43.30
45323;BME280;31382;50.200;8.674;2023-03-22T18:00:54;99653.59;;;18.07;43.39
45323;BME280;31382;50.200;8.674;2023-03-22T18:05:55;99651.03;;;18.00;43.68
45323;BME280;31382;50.200;8.674;2023-03-22T18:10:55;99651.66;;;17.90;43.65
45323;BME280;31382;50.200;8.674;2023-03-22T18:15:56;99650.72;;;17.84;43.80
45323;BME280;31382;50.200;8.674;2023-03-22T18:21:07;99646.34;;;17.72;44.26
45323;BME280;31382;50.200;8.674;2023-03-22T18:26:09;99650.63;;;17.68;44.10
45323;BME280;31382;50.200;8.674;2023-03-22T18:31:12;99638.59;;;17.63;43.79
45323;BME280;31382;50.200;8.674;2023-03-22T18:36:13;99642.94;;;17.64;43.88
45323;BME280;31382;50.200;8.674;2023-03-22T18:41:13;99643.75;;;17.65;43.78
45323;BME280;31382;50.200;8.674;2023-03-22T18:46:15;99643.19;;;17.51;44.01
45323;BME280;31382;50.200;8.674;2023-03-22T18:51:16;99636.00;;;17.45;44.15
45323;BME280;31382;50.200;8.674;2023-03-22T18:56:16;99641.56;;;17.38;44.24
45323;BME280;31382;50.200;8.674;2023-03-22T19:01:16;99639.69;;;17.39;44.33
45323;BME280;31382;50.200;8.674;2023-03-22T19:06:18;99630.94;;;17.37;44.46
45323;BME280;31382;50.200;8.674;2023-03-22T19:11:18;99642.41;;;17.27;44.39
45323;BME280;31382;50.200;8.674;2023-03-22T19:16:19;99643.22;;;17.28;44.13
45323;BME280;31382;50.200;8.674;2023-03-22T19:21:21;99645.72;;;17.29;44.10
45323;BME280;31382;50.200;8.674;2023-03-22T19:26:21;99630.94;;;17.25;43.93
45323;BME280;31382;50.200;8.674;2023-03-22T19:31:22;99612.28;;;17.29;43.60
45323;BME280;31382;50.200;8.674;2023-03-22T19:36:23;99620.22;;;17.30;43.10
45323;BME280;31382;50.200;8.674;2023-03-22T19:41:24;99605.53;;;17.31;43.25
45323;BME280;31382;50.200;8.674;2023-03-22T19:46:24;99606.38;;;17.32;42.72
45323;BME280;31382;50.200;8.674;2023-03-22T19:51:25;99598.69;;;17.40;42.37
45323;BME280;31382;50.200;8.674;2023-03-22T19:56:25;99602.34;;;17.46;41.98
45323;BME280;31382;50.200;8.674;2023-03-22T20:01:27;99609.41;;;17.47;41.99
45323;BME280;31382;50.200;8.674;2023-03-22T20:06:28;99614.19;;;17.40;42.22
45323;BME280;31382;50.200;8.674;2023-03-22T20:11:32;99600.09;;;17.43;42.04
45323;BME280;31382;50.200;8.674;2023-03-22T20:16:33;99593.97;;;17.36;41.86
45323;BME280;31382;50.200;8.674;2023-03-22T20:21:36;99587.97;;;17.34;42.02
45323;BME280;31382;50.200;8.674;2023-03-22T20:26:37;99600.47;;;17.35;41.95
45323;BME280;31382;50.200;8.674;2023-03-22T20:31:38;99596.44;;;17.37;41.72
45323;BME280;31382;50.200;8.674;2023-03-22T20:36:38;99591.34;;;17.41;41.76
45323;BME280;31382;50.200;8.674;2023-03-22T20:41:39;99579.69;;;17.29;42.04
45323;BME280;31382;50.200;8.674;2023-03-22T20:46:39;99583.84;;;17.19;42.30
45323;BME280;31382;50.200;8.674;2023-03-22T20:51:39;99576.38;;;17.27;42.04
45323;BME280;31382;50.200;8.674;2023-03-22T20:56:40;99569.28;;;17.25;42.24
45323;BME280;31382;50.200;8.674;2023-03-22T21:01:40;99575.09;;;17.17;42.11
45323;BME280;31382;50.200;8.674;2023-03-22T21:06:41;99571.06;;;17.20;42.52
45323;BME280;31382;50.200;8.674;2023-03-22T21:11:42;99572.63;;;17.16;42.43
45323;BME280;31382;50.200;8.674;2023-03-22T21:16:43;99573.94;;;17.13;42.75
45323;BME280;31382;50.200;8.674;2023-03-22T21:21:43;99572.97;;;17.08;42.40
45323;BME280;31382;50.200;8.674;2023-03-22T21:26:43;99571.94;;;17.09;42.52
45323;BME280;31382;50.200;8.674;2023-03-22T21:31:44;99563.78;;;17.09;42.40
45323;BME280;31382;50.200;8.674;2023-03-22T21:36:44;99551.63;;;16.99;42.64
45323;BME280;31382;50.200;8.674;2023-03-22T21:41:47;99546.34;;;16.93;42.19
45323;BME280;31382;50.200;8.674;2023-03-22T21:46:48;99553.88;;;16.79;42.64
45323;BME280;31382;50.200;8.674;2023-03-22T21:51:48;99560.94;;;16.80;42.34
45323;BME280;31382;50.200;8.674;2023-03-22T21:56:48;99566.53;;;16.85;42.42
45323;BME280;31382;50.200;8.674;2023-03-22T22:01:50;99556.72;;;16.84;42.54
45323;BME280;31382;50.200;8.674;2023-03-22T22:06:51;99548.47;;;16.91;42.55
45323;BME280;31382;50.200;8.674;2023-03-22T22:11:53;99543.84;;;16.91;42.39
45323;BME280;31382;50.200;8.674;2023-03-22T22:16:54;99549.06;;;16.93;42.70
45323;BME280;31382;50.200;8.674;2023-03-22T22:21:54;99551.53;;;16.94;42.78
45323;BME280;31382;50.200;8.674;2023-03-22T22:26:55;99538.06;;;16.99;42.60
45323;BME280;31382;50.200;8.674;2023-03-22T22:31:56;99539.81;;;16.94;42.92
45323;BME280;31382;50.200;8.674;2023-03-22T22:36:56;99520.97;;;16.87;43.36
45323;BME280;31382;50.200;8.674;2023-03-22T22:41:57;99522.59;;;16.88;43.21
45323;BME280;31382;50.200;8.674;2023-03-22T22:46:57;99514.81;;;16.92;43.28
45323;BME280;31382;50.200;8.674;2023-03-22T22:51:57;99505.97;;;16.96;43.00
45323;BME280;31382;50.200;8.674;2023-03-22T22:56:57;99508.41;;;16.98;43.06
45323;BME280;31382;50.200;8.674;2023-03-22T23:01:58;99498.88;;;16.95;42.92
45323;BME280;31382;50.200;8.674;2023-03-22T23:06:58;99501.00;;;16.93;42.75
45323;BME280;31382;50.200;8.674;2023-03-22T23:11:59;99514.13;;;16.96;42.63
45323;BME280;31382;50.200;8.674;2023-03-22T23:17:00;99495.44;;;17.00;42.52
45323;BME280;31382;50.200;8.674;2023-03-22T23:22:00;99484.56;;;17.00;42.65
45323;BME280;31382;50.200;8.674;2023-03-22T23:27:02;99488.38;;;16.99;42.53
45323;BME280;31382;50.200;8.674;2023-03-22T23:32:03;99477.72;;;16.97;42.71
45323;BME280;31382;50.200;8.674;2023-03-22T23:37:03;99480.81;;;17.01;42.37
45323;BME280;31382;50.200;8.674;2023-03-22T23:42:09;99470.91;;;16.95;42.67
45323;BME280;31382;50.200;8.674;2023-03-22T23:47:12;99467.97;;;16.96;42.69
45323;BME280;31382;50.200;8.674;2023-03-22T23:52:13;99461.59;;;16.91;42.95
45323;BME280;31382;50.200;8.674;2023-03-22T23:57:13;99462.41;;;16.91;42.94
